createdAt,value
2023-04-22T00:02:06.793Z,11.63
2023-04-22T00:04:37.284Z,16.27
2023-04-22T00:07:08.719Z,16.35
2023-04-22T00:09:38.057Z,15.75
2023-04-22T00:12:08.188Z,15.88
2023-04-22T00:14:37.443Z,12.25
2023-04-22T00:17:07.973Z,16.63
2023-04-22T00:19:37.584Z,14.50
2023-04-22T00:22:08.510Z,15.90
2023-04-22T00:24:37.668Z,16.30
2023-04-22T00:27:08.108Z,15.02
2023-04-22T00:29:37.642Z,14.73
2023-04-22T00:32:07.489Z,18.15
2023-04-22T00:34:36.743Z,15.68
2023-04-22T00:37:07.720Z,14.05
2023-04-22T00:39:39.760Z,17.77
2023-04-22T00:42:09.855Z,15.52
2023-04-22T00:44:39.264Z,21.25
2023-04-22T00:47:09.810Z,14.35
2023-04-22T00:49:39.362Z,16.67
2023-04-22T00:52:10.544Z,17.35
2023-04-22T00:54:39.868Z,20.85
2023-04-22T00:57:09.464Z,19.95
2023-04-22T00:59:39.124Z,19.70
2023-04-22T01:02:09.516Z,21.52
2023-04-22T01:04:39.378Z,21.23
2023-04-22T01:07:10.303Z,20.60
2023-04-22T01:09:40.235Z,20.73
2023-04-22T01:12:10.314Z,20.58
2023-04-22T01:14:39.776Z,19.48
2023-04-22T01:17:13.904Z,18.77
2023-04-22T01:19:43.900Z,17.85
2023-04-22T01:22:16.175Z,19.20
2023-04-22T01:24:47.140Z,19.48
2023-04-22T01:27:16.646Z,17.77
2023-04-22T01:29:46.157Z,17.45
2023-04-22T01:32:15.730Z,18.35
2023-04-22T01:34:45.031Z,22.13
2023-04-22T01:37:15.487Z,21.55
2023-04-22T01:39:46.841Z,21.15
2023-04-22T01:42:17.196Z,22.55
2023-04-22T01:44:47.453Z,24.63
2023-04-22T01:47:17.288Z,21.13
2023-04-22T01:49:46.502Z,19.27
2023-04-22T01:52:16.006Z,26.85
2023-04-22T01:54:46.775Z,23.27
2023-04-22T01:57:16.716Z,20.70
2023-04-22T01:59:46.391Z,23.23
2023-04-22T02:02:17.202Z,19.17
2023-04-22T02:04:46.709Z,20.10
2023-04-22T02:07:16.515Z,25.50
2023-04-22T02:09:50.222Z,22.50
2023-04-22T02:12:20.225Z,21.55
2023-04-22T02:14:49.399Z,22.35
2023-04-22T02:17:18.945Z,16.73
2023-04-22T02:19:48.891Z,18.55
2023-04-22T02:22:19.138Z,27.40
2023-04-22T02:24:49.975Z,23.23
2023-04-22T02:27:19.380Z,19.27
2023-04-22T02:29:50.268Z,24.75
2023-04-22T02:36:12.273Z,25.13
2023-04-22T02:38:41.542Z,22.85
2023-04-22T02:41:12.494Z,17.75
2023-04-22T02:43:46.060Z,22.00
2023-04-22T02:46:16.876Z,26.70
2023-04-22T02:48:46.150Z,19.08
2023-04-22T02:51:15.600Z,14.98
2023-04-22T02:53:44.737Z,18.55
2023-04-22T02:56:15.557Z,15.77
2023-04-22T02:58:44.877Z,13.30
2023-04-22T03:01:14.311Z,16.05
2023-04-22T03:03:44.370Z,18.33
2023-04-22T03:06:19.166Z,20.58
2023-04-22T03:08:48.436Z,18.33
2023-04-22T03:11:19.259Z,19.15
2023-04-22T03:13:48.386Z,15.15
2023-04-22T03:16:19.019Z,24.83
2023-04-22T03:18:48.528Z,15.80
2023-04-22T03:21:18.261Z,19.08
2023-04-22T03:23:47.383Z,19.70
2023-04-22T03:26:18.344Z,18.73
2023-04-22T03:28:47.936Z,25.60
2023-04-22T03:31:17.847Z,20.67
2023-04-22T03:33:48.316Z,16.80
2023-04-22T03:36:28.440Z,21.38
2023-04-22T03:38:58.826Z,17.80
2023-04-22T03:41:30.381Z,24.33
2023-04-22T03:44:01.651Z,14.75
2023-04-22T03:46:32.737Z,18.13
2023-04-22T03:49:13.001Z,15.30
2023-04-22T03:51:42.473Z,14.43
2023-04-22T03:54:15.356Z,18.25
2023-04-22T03:56:52.164Z,13.68
2023-04-22T03:59:23.348Z,23.20
2023-04-22T04:01:54.306Z,22.48
2023-04-22T04:04:29.468Z,18.23
2023-04-22T04:07:02.663Z,20.88
2023-04-22T04:09:32.011Z,22.80
2023-04-22T04:12:03.027Z,17.63
2023-04-22T04:17:10.223Z,20.67
2023-04-22T04:19:40.248Z,24.20
2023-04-22T04:22:10.674Z,18.65
2023-04-22T04:24:48.218Z,18.35
2023-04-22T04:27:24.834Z,20.00
2023-04-22T04:29:56.716Z,14.32
2023-04-22T04:32:43.030Z,20.73
2023-04-22T04:35:15.124Z,16.85
2023-04-22T04:37:50.857Z,20.60
2023-04-22T04:40:20.161Z,13.82
2023-04-22T04:45:32.626Z,18.08
2023-04-22T04:48:02.928Z,13.45
2023-04-22T04:50:38.124Z,20.10
2023-04-22T04:53:08.573Z,14.88
2023-04-22T04:55:41.370Z,12.70
2023-04-22T04:58:19.925Z,17.00
2023-04-22T05:00:53.102Z,12.68
2023-04-22T05:03:22.995Z,15.10
2023-04-22T05:05:52.798Z,11.65
2023-04-22T05:08:22.409Z,15.77
2023-04-22T05:10:53.339Z,14.55
2023-04-22T05:13:24.311Z,24.63
2023-04-22T05:15:53.395Z,11.20
2023-04-22T05:18:23.294Z,11.57
2023-04-22T05:20:52.503Z,13.07
2023-04-22T05:23:23.733Z,15.65
2023-04-22T05:25:56.096Z,9.43
2023-04-22T05:28:27.693Z,12.73
2023-04-22T05:30:59.662Z,10.00
2023-04-22T05:33:31.634Z,9.15
2023-04-22T05:36:00.940Z,9.85
2023-04-22T05:38:30.798Z,10.65
2023-04-22T05:40:59.995Z,6.95
2023-04-22T05:43:30.855Z,11.40
2023-04-22T05:46:07.329Z,6.10
2023-04-22T05:48:39.980Z,8.18
2023-04-22T05:51:12.670Z,7.28
2023-04-22T05:53:42.201Z,6.60
2023-04-22T05:56:12.689Z,5.38
2023-04-22T05:58:43.632Z,9.95
2023-04-22T06:01:16.851Z,6.60
2023-04-22T06:04:12.828Z,7.60
2023-04-22T06:06:42.301Z,10.68
2023-04-22T06:09:12.157Z,13.88
2023-04-22T06:11:43.044Z,12.27
2023-04-22T06:14:13.968Z,11.10
2023-04-22T06:16:45.503Z,13.15
2023-04-22T06:19:14.995Z,10.45
2023-04-22T06:21:44.101Z,6.30
2023-04-22T06:24:13.692Z,6.90
2023-04-22T06:26:44.842Z,3.08
2023-04-22T06:29:16.032Z,6.35
2023-04-22T06:31:45.370Z,4.90
2023-04-22T06:34:14.940Z,3.78
2023-04-22T06:36:45.216Z,5.47
2023-04-22T06:39:14.758Z,4.47
2023-04-22T06:42:04.232Z,5.82
2023-04-22T06:44:51.235Z,8.77
2023-04-22T06:47:29.701Z,6.75
2023-04-22T06:50:11.224Z,7.43
2023-04-22T06:53:00.533Z,5.93
2023-04-22T06:55:31.016Z,9.15
2023-04-22T06:58:00.521Z,9.95
2023-04-22T07:00:31.476Z,9.40
2023-04-22T07:03:01.334Z,7.45
2023-04-22T07:05:32.133Z,5.10
2023-04-22T07:08:02.248Z,9.00
2023-04-22T07:10:31.645Z,3.63
2023-04-22T07:13:19.664Z,4.10
2023-04-22T07:15:50.536Z,2.92
2023-04-22T07:18:19.814Z,2.85
2023-04-22T07:20:49.303Z,4.03
2023-04-22T07:23:18.600Z,5.57
2023-04-22T07:25:47.954Z,5.75
2023-04-22T07:28:17.205Z,2.85
2023-04-22T07:30:47.221Z,3.13
2023-04-22T07:33:17.877Z,6.15
2023-04-22T07:35:47.652Z,2.85
2023-04-22T07:38:16.958Z,3.35
2023-04-22T07:40:46.666Z,3.40
2023-04-22T07:43:15.805Z,4.13
2023-04-22T07:45:45.469Z,2.17
2023-04-22T07:48:16.232Z,2.60
2023-04-22T07:50:45.708Z,3.00
2023-04-22T07:53:16.019Z,2.55
2023-04-22T07:55:45.974Z,3.97
2023-04-22T07:58:15.207Z,1.88
2023-04-22T08:00:44.785Z,2.75
2023-04-22T08:03:14.803Z,0.77
2023-04-22T08:05:45.925Z,0.80
2023-04-22T08:08:15.434Z,2.30
2023-04-22T08:10:45.121Z,2.45
2023-04-22T08:13:15.813Z,0.60
2023-04-22T08:15:46.692Z,1.73
2023-04-22T08:18:16.146Z,1.80
2023-04-22T08:20:48.334Z,1.30
2023-04-22T08:23:17.508Z,1.10
2023-04-22T08:25:46.891Z,1.10
2023-04-22T08:28:16.610Z,3.63
2023-04-22T08:30:46.016Z,4.55
2023-04-22T08:33:15.176Z,2.78
2023-04-22T08:35:46.146Z,1.83
2023-04-22T08:38:15.672Z,3.72
2023-04-22T08:40:45.106Z,2.08
2023-04-22T08:43:14.945Z,3.15
2023-04-22T08:45:44.539Z,3.90
2023-04-22T08:48:14.542Z,4.82
2023-04-22T08:50:44.515Z,3.75
2023-04-22T08:53:15.223Z,2.78
2023-04-22T08:55:46.693Z,3.47
2023-04-22T08:58:15.887Z,1.27
2023-04-22T09:00:45.977Z,1.75
2023-04-22T09:03:16.953Z,2.90
2023-04-22T09:05:48.476Z,1.88
2023-04-22T09:08:19.376Z,3.00
2023-04-22T09:10:49.176Z,4.22
2023-04-22T09:13:19.652Z,0.90
2023-04-22T09:15:49.729Z,1.58
2023-04-22T09:18:20.016Z,3.58
2023-04-22T09:20:50.829Z,3.78
2023-04-22T09:23:22.274Z,8.80
2023-04-22T09:25:51.950Z,2.38
2023-04-22T09:28:21.329Z,3.55
2023-04-22T09:30:50.733Z,1.73
2023-04-22T09:33:19.941Z,2.67
2023-04-22T09:35:49.397Z,2.38
2023-04-22T09:38:18.544Z,4.82
2023-04-22T09:40:49.565Z,2.65
2023-04-22T09:43:20.940Z,2.70
2023-04-22T09:45:50.422Z,2.00
2023-04-22T09:48:21.721Z,2.55
2023-04-22T09:50:53.107Z,2.38
2023-04-22T09:53:23.243Z,2.75
2023-04-22T09:55:56.065Z,3.33
2023-04-22T09:58:27.642Z,2.92
2023-04-22T10:00:59.532Z,2.38
2023-04-22T10:03:28.867Z,1.50
2023-04-22T10:05:58.957Z,18.77
2023-04-22T10:08:28.643Z,27.35
2023-04-22T10:10:59.440Z,13.32
2023-04-22T10:13:28.643Z,4.85
2023-04-22T10:15:58.934Z,4.88
2023-04-22T10:18:29.401Z,2.25
2023-04-22T10:21:00.683Z,2.72
2023-04-22T10:23:34.361Z,1.73
2023-04-22T10:26:07.505Z,2.97
2023-04-22T10:28:36.735Z,3.58
2023-04-22T10:31:21.214Z,1.10
2023-04-22T10:33:50.519Z,2.03
2023-04-22T10:36:21.785Z,1.77
2023-04-22T10:39:18.954Z,1.40
2023-04-22T10:41:55.326Z,2.13
2023-04-22T10:44:28.849Z,15.13
2023-04-22T10:47:02.167Z,1.98
2023-04-22T10:49:35.078Z,10.82
2023-04-22T10:52:06.453Z,10.18
2023-04-22T10:54:57.930Z,7.00
2023-04-22T10:57:37.857Z,3.42
2023-04-22T11:00:53.011Z,4.07
2023-04-22T11:03:29.388Z,4.75
2023-04-22T11:06:19.281Z,3.20
2023-04-22T11:08:49.634Z,3.65
2023-04-22T11:11:20.123Z,2.45
2023-04-22T11:13:51.993Z,5.00
2023-04-22T11:16:24.545Z,1.83
2023-04-22T11:18:56.968Z,0.82
2023-04-22T11:21:27.738Z,1.67
2023-04-22T11:24:02.822Z,2.33
2023-04-22T11:26:36.369Z,0.82
2023-04-22T11:29:07.243Z,2.40
2023-04-22T11:31:37.808Z,4.10
2023-04-22T11:34:10.025Z,2.90
2023-04-22T11:36:39.335Z,3.10
2023-04-22T11:39:15.013Z,4.43
2023-04-22T11:41:44.706Z,1.98
2023-04-22T11:44:17.686Z,1.20
2023-04-22T11:46:46.854Z,2.13
2023-04-22T11:49:16.801Z,1.77
2023-04-22T11:51:56.876Z,2.80
2023-04-22T11:54:34.102Z,1.45
2023-04-22T11:57:05.131Z,2.03
2023-04-22T11:59:36.174Z,1.23
2023-04-22T12:02:07.467Z,2.28
2023-04-22T12:04:41.283Z,2.15
2023-04-22T12:07:10.569Z,1.33
2023-04-22T12:09:41.777Z,2.20
2023-04-22T12:12:11.254Z,1.90
2023-04-22T12:14:46.360Z,0.85
2023-04-22T12:17:16.540Z,1.23
2023-04-22T12:19:49.109Z,2.58
2023-04-22T12:22:27.160Z,1.13
2023-04-22T12:24:59.529Z,1.42
2023-04-22T12:27:29.017Z,1.00
2023-04-22T12:30:00.286Z,1.20
2023-04-22T12:32:29.553Z,1.23
2023-04-22T12:34:59.226Z,1.80
2023-04-22T12:37:30.099Z,1.15
2023-04-22T12:39:59.597Z,4.22
2023-04-22T12:42:28.739Z,2.53
2023-04-22T12:44:59.696Z,5.68
2023-04-22T12:47:29.014Z,1.42
2023-04-22T12:50:01.417Z,1.85
2023-04-22T12:52:31.328Z,2.33
2023-04-22T12:55:01.018Z,1.60
2023-04-22T12:57:30.584Z,1.42
2023-04-22T13:00:01.753Z,1.77
2023-04-22T13:02:31.122Z,2.70
2023-04-22T13:05:00.918Z,2.20
2023-04-22T13:07:30.078Z,0.80
2023-04-22T13:09:59.951Z,3.90
2023-04-22T13:12:29.046Z,1.35
2023-04-22T13:14:58.638Z,8.57
2023-04-22T13:17:29.357Z,2.03
2023-04-22T13:19:59.087Z,8.07
2023-04-22T13:22:28.677Z,3.15
2023-04-22T13:24:58.098Z,2.47
2023-04-22T13:27:27.733Z,1.33
2023-04-22T13:29:58.423Z,2.25
2023-04-22T13:32:29.038Z,1.80
2023-04-22T13:34:59.536Z,1.65
2023-04-22T13:37:30.101Z,1.73
2023-04-22T13:39:59.654Z,3.08
2023-04-22T13:42:28.776Z,3.50
2023-04-22T13:44:58.392Z,1.85
2023-04-22T13:47:27.557Z,1.65
2023-04-22T13:50:00.309Z,1.52
2023-04-22T13:52:29.407Z,4.20
2023-04-22T13:54:59.014Z,1.83
2023-04-22T13:57:28.215Z,1.95
2023-04-22T13:59:57.649Z,1.00
2023-04-22T14:02:26.951Z,2.05
2023-04-22T14:04:58.859Z,4.45
2023-04-22T14:07:28.486Z,2.33
2023-04-22T14:09:57.887Z,1.77
2023-04-22T14:12:26.989Z,2.60
2023-04-22T14:14:56.394Z,2.95
2023-04-22T14:17:27.704Z,0.93
2023-04-22T14:19:58.686Z,2.42
2023-04-22T14:22:27.839Z,1.73
2023-04-22T14:24:57.462Z,2.17
2023-04-22T14:27:27.202Z,3.30
2023-04-22T14:29:56.683Z,2.08
2023-04-22T14:32:26.514Z,7.20
2023-04-22T14:34:57.329Z,1.88
2023-04-22T14:37:26.977Z,2.13
2023-04-22T14:39:57.592Z,5.90
2023-04-22T14:42:27.324Z,1.73
2023-04-22T14:44:56.783Z,0.90
2023-04-22T14:47:25.909Z,4.07
2023-04-22T14:49:55.800Z,2.53
2023-04-22T14:52:26.386Z,0.80
2023-04-22T14:54:55.683Z,2.08
2023-04-22T14:57:24.837Z,2.42
2023-04-22T14:59:54.212Z,1.05
2023-04-22T15:02:23.604Z,2.33
2023-04-22T15:04:53.436Z,4.25
2023-04-22T15:07:22.660Z,2.95
2023-04-22T15:09:53.805Z,1.85
2023-04-22T15:12:23.378Z,2.63
2023-04-22T15:14:53.342Z,3.08
2023-04-22T15:17:23.493Z,6.22
2023-04-22T15:19:54.101Z,2.13
2023-04-22T15:22:23.291Z,1.80
2023-04-22T15:24:54.282Z,2.78
2023-04-22T15:27:23.492Z,2.97
2023-04-22T15:29:53.297Z,2.55
2023-04-22T15:32:22.580Z,2.05
2023-04-22T15:34:52.320Z,4.20
2023-04-22T15:37:21.440Z,4.30
2023-04-22T15:39:50.946Z,2.67
2023-04-22T15:42:21.656Z,9.07
2023-04-22T15:44:51.250Z,7.15
2023-04-22T15:47:20.447Z,7.07
2023-04-22T15:49:49.973Z,3.63
2023-04-22T15:52:19.581Z,6.97
2023-04-22T15:54:49.915Z,4.00
2023-04-22T15:57:20.505Z,2.88
2023-04-22T15:59:56.313Z,4.38
2023-04-22T16:02:32.402Z,2.15
2023-04-22T16:05:02.037Z,3.03
2023-04-22T16:07:31.731Z,6.53
2023-04-22T16:10:01.147Z,6.38
2023-04-22T16:12:33.923Z,10.75
2023-04-22T16:15:03.959Z,2.58
2023-04-22T16:17:33.196Z,4.03
2023-04-22T16:20:03.155Z,3.63
2023-04-22T16:22:32.364Z,7.22
2023-04-22T16:25:01.846Z,4.20
2023-04-22T16:27:32.546Z,3.60
2023-04-22T16:30:02.066Z,5.00
2023-04-22T16:32:31.465Z,7.68
2023-04-22T16:35:01.434Z,4.55
2023-04-22T16:37:31.138Z,5.63
2023-04-22T16:40:00.887Z,5.63
2023-04-22T16:42:31.968Z,3.55
2023-04-22T16:45:01.413Z,2.90
2023-04-22T16:47:30.498Z,4.70
2023-04-22T16:50:00.069Z,3.47
2023-04-22T16:52:29.416Z,7.47
2023-04-22T16:54:58.886Z,3.80
2023-04-22T16:57:28.185Z,4.45
2023-04-22T16:59:58.932Z,7.60
2023-04-22T17:02:28.277Z,10.35
2023-04-22T17:04:57.824Z,8.02
2023-04-22T17:07:27.028Z,6.05
2023-04-22T17:09:56.517Z,7.03
2023-04-22T17:12:25.833Z,7.15
2023-04-22T17:14:55.374Z,5.88
2023-04-22T17:17:25.956Z,4.95
2023-04-22T17:19:55.414Z,13.43
2023-04-22T17:22:24.897Z,3.30
2023-04-22T17:24:56.701Z,5.05
2023-04-22T17:27:25.843Z,9.38
2023-04-22T17:29:55.417Z,5.85
2023-04-22T17:32:26.066Z,3.08
2023-04-22T17:34:55.780Z,5.18
2023-04-22T17:37:24.900Z,4.22
2023-04-22T17:39:56.313Z,3.50
2023-04-22T17:42:38.871Z,5.38
2023-04-22T17:45:14.718Z,3.67
2023-04-22T17:47:45.295Z,2.25
2023-04-22T17:50:14.768Z,6.70
2023-04-22T17:52:44.228Z,5.85
2023-04-22T17:55:13.692Z,9.60
2023-04-22T17:57:42.910Z,3.63
2023-04-22T18:00:14.562Z,8.57
2023-04-22T18:02:45.312Z,7.20
2023-04-22T18:05:15.219Z,8.82
2023-04-22T18:07:44.429Z,9.75
2023-04-22T18:10:14.612Z,12.43
2023-04-22T18:12:43.837Z,14.43
2023-04-22T18:15:13.276Z,15.85
2023-04-22T18:17:42.597Z,17.80
2023-04-22T18:20:18.638Z,14.85
2023-04-22T18:22:49.897Z,20.55
2023-04-22T18:25:19.553Z,14.77
2023-04-22T18:27:50.785Z,18.25
2023-04-22T18:30:20.422Z,19.52
2023-04-22T18:32:49.724Z,11.85
2023-04-22T18:35:21.094Z,12.43
2023-04-22T18:37:50.475Z,12.57
2023-04-22T18:40:21.236Z,12.32
2023-04-22T18:42:50.298Z,12.05
2023-04-22T18:45:22.852Z,16.05
2023-04-22T18:47:52.110Z,14.50
2023-04-22T18:50:23.103Z,16.05
2023-04-22T18:52:52.544Z,12.95
2023-04-22T18:55:22.206Z,16.58
2023-04-22T18:57:51.666Z,28.45
2023-04-22T19:00:21.539Z,23.70
2023-04-22T19:02:50.858Z,23.13
2023-04-22T19:05:22.138Z,26.95
2023-04-22T19:07:52.000Z,22.60
2023-04-22T19:10:22.174Z,22.10
2023-04-22T19:12:51.322Z,18.70
2023-04-22T19:15:21.453Z,21.88
2023-04-22T19:17:51.159Z,15.82
2023-04-22T19:20:22.279Z,17.35
2023-04-22T19:22:51.612Z,17.77
2023-04-22T19:25:21.730Z,13.75
2023-04-22T19:27:51.064Z,13.35
2023-04-22T19:30:20.790Z,10.55
2023-04-22T19:32:50.124Z,13.63
2023-04-22T19:35:19.680Z,14.00
2023-04-22T19:37:50.550Z,11.23
2023-04-22T19:40:20.298Z,18.17
2023-04-22T19:42:49.465Z,14.77
2023-04-22T19:45:19.176Z,13.63
2023-04-22T19:47:48.915Z,12.98
2023-04-22T19:50:18.916Z,14.18
2023-04-22T19:52:50.953Z,14.73
2023-04-22T19:55:21.022Z,14.18
2023-04-22T19:57:50.756Z,14.90
2023-04-22T20:00:21.926Z,18.50
2023-04-22T20:02:51.961Z,24.30
2023-04-22T20:05:22.581Z,29.75
2023-04-22T20:07:54.406Z,47.53
2023-04-22T20:10:23.972Z,40.67
2023-04-22T20:12:53.398Z,37.72
2023-04-22T20:15:23.354Z,48.72
2023-04-22T20:17:54.040Z,50.17
2023-04-22T20:20:24.061Z,40.75
2023-04-22T20:22:57.247Z,37.95
2023-04-22T20:25:28.818Z,33.67
2023-04-22T20:27:58.580Z,25.05
2023-04-22T20:30:28.693Z,26.77
2023-04-22T20:32:58.425Z,19.30
2023-04-22T20:35:28.632Z,18.27
2023-04-22T20:38:02.593Z,20.88
2023-04-22T20:40:33.885Z,21.88
2023-04-22T20:43:03.384Z,22.83
2023-04-22T20:45:32.957Z,17.27
2023-04-22T20:48:02.551Z,21.10
2023-04-22T20:50:33.653Z,22.88
2023-04-22T20:53:05.457Z,16.73
2023-04-22T20:55:37.185Z,15.70
2023-04-22T20:58:06.698Z,17.75
2023-04-22T21:00:36.317Z,15.98
2023-04-22T21:03:08.899Z,23.08
2023-04-22T21:05:41.390Z,19.92
2023-04-22T21:08:24.883Z,20.65
2023-04-22T21:10:56.499Z,23.67
2023-04-22T21:13:26.257Z,21.83
2023-04-22T21:16:00.204Z,15.45
2023-04-22T21:18:32.494Z,27.17
2023-04-22T21:21:05.006Z,30.63
2023-04-22T21:23:36.147Z,20.75
2023-04-22T21:26:05.987Z,20.60
2023-04-22T21:28:35.755Z,23.48
2023-04-22T21:31:06.104Z,20.23
2023-04-22T21:33:35.401Z,23.95
2023-04-22T21:36:05.485Z,21.95
2023-04-22T21:38:36.168Z,19.30
2023-04-22T21:41:06.244Z,25.42
2023-04-22T21:43:35.837Z,17.83
2023-04-22T21:46:05.780Z,23.08
2023-04-22T21:48:35.050Z,22.15
2023-04-22T21:51:04.494Z,19.70
2023-04-22T21:53:35.171Z,27.00
2023-04-22T21:56:04.648Z,18.80
2023-04-22T21:58:33.901Z,21.85
2023-04-22T22:01:03.467Z,25.85
2023-04-22T22:03:32.939Z,21.30
2023-04-22T22:06:02.521Z,21.20
2023-04-22T22:08:31.938Z,22.80
2023-04-22T22:11:03.987Z,22.02
2023-04-22T22:13:33.993Z,24.35
2023-04-22T22:16:03.651Z,34.85
2023-04-22T22:18:32.906Z,28.05
2023-04-22T22:21:02.322Z,33.72
2023-04-22T22:23:31.409Z,25.35
2023-04-22T22:26:02.438Z,26.05
2023-04-22T22:28:31.665Z,18.35
2023-04-22T22:31:02.530Z,32.17
2023-04-22T22:33:31.752Z,29.33
2023-04-22T22:36:01.301Z,31.63
2023-04-22T22:38:30.569Z,25.52
2023-04-22T22:41:01.335Z,26.27
2023-04-22T22:43:30.580Z,23.17
2023-04-22T22:46:00.084Z,25.27
2023-04-22T22:48:29.557Z,28.65
2023-04-22T22:50:59.352Z,22.40
2023-04-22T22:53:28.512Z,24.40
2023-04-22T22:55:57.936Z,31.05
2023-04-22T22:58:28.766Z,26.73
2023-04-22T23:00:58.350Z,25.15
2023-04-22T23:03:27.603Z,29.15
2023-04-22T23:05:57.482Z,19.23
2023-04-22T23:08:26.639Z,22.25
2023-04-22T23:10:55.928Z,22.83
2023-04-22T23:13:25.308Z,23.58
2023-04-22T23:15:56.240Z,21.38
2023-04-22T23:18:26.770Z,25.90
2023-04-22T23:20:57.428Z,23.90
2023-04-22T23:23:28.209Z,27.23
2023-04-22T23:26:00.782Z,24.90
2023-04-22T23:28:30.554Z,24.25
2023-04-22T23:31:04.352Z,19.02
2023-04-22T23:33:36.162Z,23.55
2023-04-22T23:36:08.740Z,20.40
2023-04-22T23:38:37.833Z,24.13
2023-04-22T23:41:07.302Z,24.58
2023-04-22T23:43:36.467Z,22.23
2023-04-22T23:46:07.601Z,25.23
2023-04-22T23:48:36.766Z,23.23
2023-04-22T23:51:06.692Z,26.35
2023-04-22T23:53:36.029Z,23.67
2023-04-22T23:56:06.145Z,16.52
2023-04-22T23:58:35.759Z,22.42
